CheckWX is a tool to help pilots better visualize weather data.  It is not intended as a substitute for an official pre-flight weather briefing.

13:04:12 UTC

ETNW METAR
Wunstorf Airport
Germany
Current

44 mins ago

ETNW 241220Z 25012KT 9999 SCT056 BKN340 22/08 Q1013 BLU+BLU+
Observed
May-24 @ 12:20 UTC
Wind
  • 250° at 12 KTS
Visibility
10,000+ meters
Flight Rules
VFR
Cloud Levels
  • Scattered at 5,600' AGL
  • Broken at 34,000' AGL
Temperature
22°C / 72°F
Dewpoint
C / 46°F
Humidity
41%
Altimeter
29.91" Hg
Pressure
1012.92 hPa
Previous

2 hours ago

ETNW 241120Z 23010KT 9999 SCT054 BKN340 22/08 Q1013 BLU+BLU+
Observed
May-24 @ 11:20 UTC
Wind
  • 230° at 10 KTS
Visibility
10,000+ meters
Flight Rules
VFR
Cloud Levels
  • Scattered at 5,400' AGL
  • Broken at 34,000' AGL
Temperature
22°C / 72°F
Dewpoint
C / 46°F
Humidity
41%
Altimeter
29.91" Hg
Pressure
1012.92 hPa
Previous

3 hours ago

ETNW 241020Z 24010KT 9999 FEW056 BKN340 22/08 Q1013 BLU+BLU+
Observed
May-24 @ 10:20 UTC
Wind
  • 240° at 10 KTS
Visibility
10,000+ meters
Flight Rules
VFR
Cloud Levels
  • Few at 5,600' AGL
  • Broken at 34,000' AGL
Temperature
22°C / 72°F
Dewpoint
C / 46°F
Humidity
41%
Altimeter
29.91" Hg
Pressure
1012.92 hPa